EFSI

Seinäjoki Airport

Seinäjoki / Ilmajoki, Finland
METAR EFSI 191950Z AUTO VRB06KT CAVOK 13/07 Q0998
Observed Flight Rules
Jun-19 @ 19:50 UTC (27 minutes ago) Visual Flight Rules
Wind Visibility Clouds
Variable at 6 knots 10,000+ meters
  • Clear skies
Temperatures Readings
Current 13°C / 55°F
Dewpoint 7°C / 45°F
Humidity 67%
Altimeter 29.47" Hg
Pressure 998 hPa
Elevation 91
METAR EFSI 191950Z AUTO VRB06KT CAVOK 13/07 Q0998
Observed Flight Rules
Jun-19 @ 19:50 UTC
(27 minutes ago)
VFR
Wind Visibility
Variable at 6 knots 10,000+ meters
Clouds
  • Clear skies
Temperature Dewpoint
13°C / 55°F 7°C / 45°F
Humidity Altimeter Pressure
67% 29.47" Hg 998 hPa